createdAt,value
2022-09-28T00:01:46.373Z,1.20
2022-09-28T00:04:13.559Z,1.40
2022-09-28T00:06:40.786Z,1.20
2022-09-28T00:09:07.932Z,1.30
2022-09-28T00:11:35.257Z,1.45
2022-09-28T00:14:03.708Z,1.25
2022-09-28T00:16:33.876Z,1.27
2022-09-28T00:19:01.660Z,1.20
2022-09-28T00:21:30.586Z,1.20
2022-09-28T00:24:19.229Z,1.30
2022-09-28T00:26:49.657Z,1.45
2022-09-28T00:29:20.791Z,1.60
2022-09-28T00:31:52.633Z,1.33
2022-09-28T00:34:20.842Z,1.40
2022-09-28T00:36:48.712Z,1.83
2022-09-28T00:39:16.712Z,1.50
2022-09-28T00:41:44.428Z,1.50
2022-09-28T00:44:38.123Z,1.90
2022-09-28T00:47:49.612Z,1.35
2022-09-28T00:50:29.962Z,1.40
2022-09-28T00:53:04.429Z,1.40
2022-09-28T00:55:37.628Z,1.52
2022-09-28T00:58:08.891Z,1.40
2022-09-28T01:00:36.368Z,1.63
2022-09-28T01:03:04.241Z,1.60
2022-09-28T01:05:33.892Z,1.73
2022-09-28T01:08:02.498Z,1.45
2022-09-28T01:10:31.262Z,1.40
2022-09-28T01:12:59.341Z,1.42
2022-09-28T01:15:28.844Z,1.30
2022-09-28T01:18:07.366Z,1.52
2022-09-28T01:20:54.576Z,1.38
2022-09-28T01:23:54.055Z,1.40
2022-09-28T01:26:46.624Z,1.45
2022-09-28T01:29:22.190Z,1.33
2022-09-28T01:31:55.282Z,1.52
2022-09-28T01:34:28.828Z,1.45
2022-09-28T01:37:00.656Z,1.50
2022-09-28T01:39:33.080Z,1.27
2022-09-28T01:42:05.726Z,1.25
2022-09-28T01:44:39.913Z,1.58
2022-09-28T01:47:10.857Z,1.40
2022-09-28T01:49:42.780Z,1.55
2022-09-28T01:52:15.882Z,1.50
2022-09-28T01:54:47.493Z,1.60
2022-09-28T01:57:20.254Z,1.40
2022-09-28T01:59:53.400Z,1.60
2022-09-28T02:02:27.063Z,1.90
2022-09-28T02:04:57.725Z,1.45
2022-09-28T02:07:31.384Z,1.70
2022-09-28T02:10:03.151Z,1.70
2022-09-28T02:12:36.049Z,1.70
2022-09-28T02:15:12.715Z,1.77
2022-09-28T02:17:40.660Z,1.65
2022-09-28T02:20:09.073Z,1.42
2022-09-28T02:22:40.741Z,2.05
2022-09-28T02:25:11.332Z,1.88
2022-09-28T02:27:45.554Z,1.80
2022-09-28T02:30:13.306Z,1.80
2022-09-28T02:32:44.216Z,1.77
2022-09-28T02:35:16.493Z,2.10
2022-09-28T02:37:45.862Z,2.25
2022-09-28T02:40:14.885Z,1.80
2022-09-28T02:42:54.218Z,2.10
2022-09-28T02:45:37.791Z,2.17
2022-09-28T02:48:31.465Z,1.85
2022-09-28T02:51:17.945Z,1.98
2022-09-28T02:54:16.683Z,2.55
2022-09-28T02:57:04.442Z,2.60
2022-09-28T02:59:43.896Z,2.45
2022-09-28T03:02:21.265Z,2.80
2022-09-28T03:05:01.321Z,2.42
2022-09-28T03:07:35.573Z,2.05
2022-09-28T03:10:08.985Z,2.40
2022-09-28T03:12:38.421Z,2.17
2022-09-28T03:15:20.387Z,2.10
2022-09-28T03:17:47.894Z,2.30
2022-09-28T03:20:15.698Z,2.35
2022-09-28T03:22:48.797Z,2.35
2022-09-28T03:25:23.295Z,1.95
2022-09-28T03:27:50.508Z,1.90
2022-09-28T03:30:19.237Z,2.20
2022-09-28T03:32:47.375Z,2.30
2022-09-28T03:35:14.715Z,2.40
2022-09-28T03:37:42.571Z,2.38
2022-09-28T03:40:10.444Z,1.98
2022-09-28T03:42:37.916Z,2.00
2022-09-28T03:45:06.384Z,2.70
2022-09-28T03:47:35.156Z,2.88
2022-09-28T03:50:02.595Z,3.08
2022-09-28T03:52:29.803Z,2.90
2022-09-28T03:54:56.941Z,3.00
2022-09-28T03:57:24.525Z,2.70
2022-09-28T03:59:51.642Z,2.95
2022-09-28T04:02:18.824Z,2.88
2022-09-28T04:04:47.736Z,2.65
2022-09-28T04:07:15.033Z,2.20
2022-09-28T04:09:44.180Z,2.47
2022-09-28T04:12:11.660Z,2.50
2022-09-28T04:14:38.770Z,2.25
2022-09-28T04:17:07.212Z,2.45
2022-09-28T04:19:34.704Z,2.97
2022-09-28T04:22:12.833Z,2.97
2022-09-28T04:24:42.189Z,2.50
2022-09-28T04:27:28.020Z,2.72
2022-09-28T04:29:55.125Z,2.03
2022-09-28T04:32:22.790Z,2.63
2022-09-28T04:34:51.942Z,2.55
2022-09-28T04:37:20.650Z,2.40
2022-09-28T04:39:48.689Z,3.08
2022-09-28T04:42:18.831Z,3.20
2022-09-28T04:44:46.338Z,3.50
2022-09-28T04:47:13.708Z,3.35
2022-09-28T04:49:43.827Z,3.30
2022-09-28T04:52:18.487Z,2.90
2022-09-28T04:54:50.114Z,3.20
2022-09-28T04:57:17.390Z,3.13
2022-09-28T04:59:44.894Z,3.10
2022-09-28T05:02:15.305Z,3.35
2022-09-28T05:04:56.601Z,3.13
2022-09-28T05:07:27.014Z,2.92
2022-09-28T05:09:58.774Z,5.97
2022-09-28T05:12:26.507Z,3.92
2022-09-28T05:14:53.837Z,3.50
2022-09-28T05:17:21.023Z,2.55
2022-09-28T05:20:17.278Z,2.70
2022-09-28T05:22:44.920Z,2.72
2022-09-28T05:25:13.758Z,2.90
2022-09-28T05:28:03.604Z,3.17
2022-09-28T05:30:59.793Z,3.28
2022-09-28T05:33:47.301Z,2.70
2022-09-28T05:36:14.711Z,2.58
2022-09-28T05:38:45.041Z,2.80
2022-09-28T05:41:13.703Z,2.00
2022-09-28T05:43:41.171Z,2.47
2022-09-28T05:46:08.485Z,2.70
2022-09-28T05:48:38.601Z,2.53
2022-09-28T05:51:06.239Z,2.47
2022-09-28T05:53:33.564Z,2.38
2022-09-28T05:56:01.340Z,2.15
2022-09-28T05:58:32.872Z,2.60
2022-09-28T06:01:00.283Z,2.42
2022-09-28T06:03:28.674Z,2.35
2022-09-28T06:05:55.931Z,2.42
2022-09-28T06:08:24.361Z,2.30
2022-09-28T06:11:01.263Z,2.72
2022-09-28T06:13:29.252Z,2.30
2022-09-28T06:15:57.905Z,2.20
2022-09-28T06:18:26.654Z,3.97
2022-09-28T06:21:10.972Z,2.40
2022-09-28T06:23:48.212Z,2.38
2022-09-28T06:26:17.041Z,2.20
2022-09-28T06:28:45.187Z,1.83
2022-09-28T06:31:14.015Z,2.33
2022-09-28T06:33:46.100Z,1.95
2022-09-28T06:36:13.763Z,1.80
2022-09-28T06:38:41.108Z,4.03
2022-09-28T06:41:08.544Z,1.52
2022-09-28T06:43:36.820Z,1.65
2022-09-28T06:46:14.414Z,1.33
2022-09-28T06:48:50.993Z,1.13
2022-09-28T06:51:22.035Z,1.48
2022-09-28T06:54:01.136Z,1.42
2022-09-28T06:56:39.674Z,1.27
2022-09-28T06:59:07.031Z,1.77
2022-09-28T07:01:37.202Z,1.20
2022-09-28T07:04:08.988Z,1.27
2022-09-28T07:06:55.072Z,1.20
2022-09-28T07:09:44.956Z,1.20
2022-09-28T07:12:41.813Z,1.30
2022-09-28T07:15:32.090Z,1.20
2022-09-28T07:18:03.930Z,1.00
2022-09-28T07:20:41.322Z,1.30
2022-09-28T07:23:19.031Z,0.98
2022-09-28T07:26:08.471Z,1.40
2022-09-28T07:28:48.496Z,1.20
2022-09-28T07:31:30.048Z,1.00
2022-09-28T07:34:23.214Z,1.08
2022-09-28T07:37:12.502Z,0.90
2022-09-28T07:39:59.009Z,1.10
2022-09-28T07:42:30.024Z,1.00
2022-09-28T07:44:58.397Z,1.05
2022-09-28T07:47:34.668Z,0.85
2022-09-28T07:50:32.447Z,0.75
2022-09-28T07:53:30.010Z,1.10
2022-09-28T07:56:23.726Z,1.17
2022-09-28T07:59:20.544Z,1.05
2022-09-28T08:02:06.412Z,1.77
2022-09-28T08:04:33.800Z,1.02
2022-09-28T08:07:03.201Z,1.00
2022-09-28T08:09:31.405Z,1.15
2022-09-28T08:12:19.705Z,1.00
2022-09-28T08:15:11.887Z,1.00
2022-09-28T08:17:53.370Z,1.25
2022-09-28T08:20:40.897Z,0.90
2022-09-28T08:23:11.356Z,1.30
2022-09-28T08:25:40.840Z,1.02
2022-09-28T08:28:09.638Z,0.90
2022-09-28T08:30:45.322Z,0.93
2022-09-28T08:33:31.380Z,1.52
2022-09-28T08:36:17.617Z,1.45
2022-09-28T08:39:05.374Z,3.80
2022-09-28T08:41:40.584Z,1.35
2022-09-28T08:44:25.140Z,0.80
2022-09-28T08:47:36.439Z,0.90
2022-09-28T08:50:25.814Z,1.38
2022-09-28T08:53:31.474Z,1.08
2022-09-28T08:56:29.432Z,0.70
2022-09-28T08:59:00.331Z,0.82
2022-09-28T09:01:35.465Z,1.13
2022-09-28T09:04:06.680Z,0.70
2022-09-28T09:06:57.997Z,1.00
2022-09-28T09:09:48.801Z,1.10
2022-09-28T09:12:26.377Z,1.10
2022-09-28T09:15:17.483Z,0.95
2022-09-28T09:18:04.809Z,0.90
2022-09-28T09:20:48.441Z,0.90
2022-09-28T09:23:37.012Z,0.80
2022-09-28T09:26:11.106Z,2.33
2022-09-28T09:29:06.164Z,2.03
2022-09-28T09:31:58.199Z,1.30
2022-09-28T09:34:41.716Z,1.23
2022-09-28T09:37:46.264Z,1.15
2022-09-28T09:40:53.712Z,0.90
2022-09-28T09:44:05.740Z,0.90
2022-09-28T09:47:09.681Z,1.00
2022-09-28T09:49:55.656Z,1.15
2022-09-28T09:52:27.764Z,1.10
2022-09-28T09:54:58.227Z,0.82
2022-09-28T09:57:42.245Z,0.75
2022-09-28T10:00:32.036Z,0.85
2022-09-28T10:03:19.716Z,1.02
2022-09-28T10:05:54.653Z,0.82
2022-09-28T10:08:24.051Z,1.02
2022-09-28T10:10:55.255Z,0.80
2022-09-28T10:13:24.219Z,0.93
2022-09-28T10:15:56.371Z,0.88
2022-09-28T10:18:35.925Z,1.20
2022-09-28T10:21:23.745Z,1.17
2022-09-28T10:23:58.441Z,1.10
2022-09-28T10:26:33.673Z,1.17
2022-09-28T10:29:04.991Z,3.35
2022-09-28T10:31:40.290Z,1.00
2022-09-28T10:34:17.172Z,0.88
2022-09-28T10:36:52.257Z,1.40
2022-09-28T10:39:25.934Z,2.40
2022-09-28T10:41:54.324Z,1.25
2022-09-28T10:44:26.172Z,0.98
2022-09-28T10:47:20.566Z,0.80
2022-09-28T10:49:50.587Z,0.85
2022-09-28T10:52:32.169Z,0.98
2022-09-28T10:54:59.904Z,1.00
2022-09-28T10:57:29.168Z,0.90
2022-09-28T11:00:01.728Z,0.90
2022-09-28T11:02:38.629Z,0.85
2022-09-28T11:05:21.853Z,1.05
2022-09-28T11:07:52.009Z,1.05
2022-09-28T11:10:26.653Z,0.90
2022-09-28T11:12:58.697Z,1.35
2022-09-28T11:15:29.795Z,2.60
2022-09-28T11:18:18.809Z,1.10
2022-09-28T11:20:46.343Z,1.10
2022-09-28T11:23:20.912Z,0.88
2022-09-28T11:26:00.101Z,0.93
2022-09-28T11:28:32.746Z,1.02
2022-09-28T11:31:04.041Z,1.13
2022-09-28T11:34:02.936Z,1.08
2022-09-28T11:37:01.914Z,0.80
2022-09-28T11:39:39.468Z,0.73
2022-09-28T11:42:17.604Z,1.15
2022-09-28T11:44:48.025Z,1.20
2022-09-28T11:47:49.039Z,0.73
2022-09-28T11:50:27.607Z,1.10
2022-09-28T11:53:00.381Z,1.17
2022-09-28T11:55:33.743Z,0.98
2022-09-28T11:58:10.344Z,1.95
2022-09-28T12:00:44.920Z,3.95
2022-09-28T12:03:16.854Z,1.00
2022-09-28T12:05:52.200Z,0.90
2022-09-28T12:08:25.613Z,1.10
2022-09-28T12:11:09.868Z,0.90
2022-09-28T12:13:58.319Z,2.47
2022-09-28T12:17:01.035Z,5.95
2022-09-28T12:19:21.899Z,1.00
2022-09-28T12:21:52.876Z,1.30
2022-09-28T12:24:24.870Z,0.95
2022-09-28T12:26:56.608Z,0.90
2022-09-28T12:29:29.391Z,0.73
2022-09-28T12:32:02.684Z,0.80
2022-09-28T12:34:29.879Z,0.90
2022-09-28T12:37:36.597Z,0.80
2022-09-28T12:40:27.048Z,1.20
2022-09-28T12:43:06.343Z,0.90
2022-09-28T12:46:10.527Z,0.80
2022-09-28T12:52:14.035Z,0.80
2022-09-28T12:55:05.270Z,0.80
2022-09-28T12:57:42.713Z,0.70
2022-09-28T13:00:13.321Z,0.90
2022-09-28T13:03:07.111Z,1.20
2022-09-28T13:05:56.750Z,0.98
2022-09-28T13:08:35.573Z,0.80
2022-09-28T13:11:11.529Z,0.70
2022-09-28T13:13:48.008Z,0.80
2022-09-28T13:16:21.505Z,0.73
2022-09-28T13:18:54.066Z,0.83
2022-09-28T13:21:28.509Z,0.73
2022-09-28T13:26:48.132Z,0.80
2022-09-28T13:29:18.822Z,0.80
2022-09-28T13:31:48.983Z,1.05
2022-09-28T13:34:20.660Z,1.00
2022-09-28T13:37:10.062Z,0.88
2022-09-28T13:39:48.825Z,0.88
2022-09-28T13:42:53.238Z,0.70
2022-09-28T13:45:50.591Z,1.20
2022-09-28T13:48:21.750Z,1.50
2022-09-28T13:51:24.782Z,0.90
2022-09-28T13:54:06.947Z,1.00
2022-09-28T13:56:38.173Z,0.98
2022-09-28T13:59:19.515Z,1.00
2022-09-28T14:01:56.043Z,0.90
2022-09-28T14:04:24.955Z,1.00
2022-09-28T14:06:57.092Z,1.05
2022-09-28T14:09:41.622Z,1.00
2022-09-28T14:12:43.256Z,0.90
2022-09-28T14:15:43.960Z,0.95
2022-09-28T14:18:20.011Z,0.65
2022-09-28T14:20:57.015Z,0.88
2022-09-28T14:23:59.106Z,0.90
2022-09-28T14:26:48.147Z,0.95
2022-09-28T14:29:29.821Z,0.90
2022-09-28T14:32:05.125Z,1.08
2022-09-28T14:34:36.252Z,0.98
2022-09-28T14:37:24.751Z,1.00
2022-09-28T14:40:10.983Z,0.82
2022-09-28T14:42:40.411Z,0.90
2022-09-28T14:45:33.766Z,0.85
2022-09-28T14:48:13.967Z,0.90
2022-09-28T14:50:41.659Z,0.80
2022-09-28T14:53:14.826Z,0.93
2022-09-28T14:55:50.338Z,0.85
2022-09-28T14:58:23.036Z,0.70
2022-09-28T15:01:00.084Z,0.85
2022-09-28T15:03:32.784Z,0.80
2022-09-28T15:06:01.647Z,0.80
2022-09-28T15:08:39.164Z,0.90
2022-09-28T15:11:11.231Z,1.08
2022-09-28T15:13:40.797Z,0.93
2022-09-28T15:16:12.603Z,0.93
2022-09-28T15:19:04.295Z,1.10
2022-09-28T15:21:33.854Z,0.85
2022-09-28T15:24:01.227Z,0.85
2022-09-28T15:26:31.022Z,1.45
2022-09-28T15:28:58.942Z,0.88
2022-09-28T15:31:28.215Z,0.82
2022-09-28T15:34:15.533Z,1.00
2022-09-28T15:36:46.460Z,1.23
2022-09-28T15:39:16.242Z,0.90
2022-09-28T15:41:46.138Z,1.30
2022-09-28T15:44:32.339Z,1.20
2022-09-28T15:47:09.719Z,1.20
2022-09-28T15:49:41.726Z,1.25
2022-09-28T15:52:23.583Z,1.35
2022-09-28T15:54:51.017Z,1.40
2022-09-28T15:57:37.360Z,8.88
2022-09-28T16:00:07.265Z,10.60
2022-09-28T16:03:00.332Z,23.45
2022-09-28T16:05:37.908Z,1.77
2022-09-28T16:08:13.060Z,2.80
2022-09-28T16:10:54.302Z,1.55
2022-09-28T16:13:24.420Z,1.38
2022-09-28T16:15:58.241Z,2.30
2022-09-28T16:18:33.985Z,5.05
2022-09-28T16:21:29.370Z,6.82
2022-09-28T16:23:57.710Z,3.90
2022-09-28T16:26:32.169Z,2.78
2022-09-28T16:29:00.227Z,2.53
2022-09-28T16:31:33.248Z,2.88
2022-09-28T16:34:11.579Z,2.53
2022-09-28T16:36:45.887Z,4.65
2022-09-28T16:39:13.234Z,5.37
2022-09-28T16:41:44.300Z,4.00
2022-09-28T16:44:17.362Z,3.40
2022-09-28T16:46:45.539Z,3.78
2022-09-28T16:49:19.052Z,2.70
2022-09-28T16:51:48.273Z,2.15
2022-09-28T16:54:36.215Z,1.42
2022-09-28T16:57:06.276Z,1.05
2022-09-28T16:59:33.996Z,1.40
2022-09-28T17:02:01.223Z,1.23
2022-09-28T17:04:28.466Z,1.05
2022-09-28T17:06:58.404Z,1.13
2022-09-28T17:09:25.719Z,1.10
2022-09-28T17:11:56.730Z,1.38
2022-09-28T17:14:24.932Z,1.20
2022-09-28T17:17:08.190Z,1.10
2022-09-28T17:19:37.765Z,1.40
2022-09-28T17:22:08.145Z,1.20
2022-09-28T17:24:35.478Z,1.23
2022-09-28T17:27:03.410Z,1.40
2022-09-28T17:29:30.619Z,1.27
2022-09-28T17:31:57.717Z,1.48
2022-09-28T17:34:25.396Z,1.52
2022-09-28T17:36:52.837Z,1.52
2022-09-28T17:39:21.523Z,1.45
2022-09-28T17:41:51.711Z,1.50
2022-09-28T17:44:20.531Z,2.03
2022-09-28T17:46:49.751Z,2.08
2022-09-28T17:49:18.000Z,1.95
2022-09-28T17:51:45.623Z,1.80
2022-09-28T17:54:20.846Z,2.00
2022-09-28T17:56:49.687Z,2.55
2022-09-28T17:59:19.046Z,1.95
2022-09-28T18:01:46.329Z,2.10
2022-09-28T18:04:33.284Z,2.10
2022-09-28T18:07:02.183Z,2.50
2022-09-28T18:09:29.334Z,2.60
2022-09-28T18:12:01.044Z,2.20
2022-09-28T18:14:28.576Z,2.45
2022-09-28T18:16:55.795Z,2.45
2022-09-28T18:19:23.103Z,2.63
2022-09-28T18:21:50.443Z,2.50
2022-09-28T18:24:17.794Z,3.50
2022-09-28T18:26:45.742Z,4.07
2022-09-28T18:29:14.235Z,4.93
2022-09-28T18:31:41.471Z,5.45
2022-09-28T18:34:08.693Z,5.25
2022-09-28T18:36:35.937Z,5.13
2022-09-28T18:39:03.546Z,4.72
2022-09-28T18:41:30.845Z,4.80
2022-09-28T18:44:01.150Z,3.95
2022-09-28T18:46:36.467Z,3.35
2022-09-28T18:49:04.656Z,4.95
2022-09-28T18:51:31.781Z,6.45
2022-09-28T18:54:00.174Z,7.18
2022-09-28T18:56:27.559Z,7.40
2022-09-28T18:58:54.939Z,6.22
2022-09-28T19:01:30.878Z,6.15
2022-09-28T19:04:02.733Z,5.68
2022-09-28T19:06:31.903Z,6.10
2022-09-28T19:08:59.573Z,3.30
2022-09-28T19:11:28.635Z,2.50
2022-09-28T19:13:56.186Z,2.08
2022-09-28T19:16:25.805Z,2.28
2022-09-28T19:18:53.716Z,2.47
2022-09-28T19:21:23.530Z,2.42
2022-09-28T19:23:52.347Z,1.60
2022-09-28T19:26:23.577Z,1.80
2022-09-28T19:28:50.951Z,1.73
2022-09-28T19:31:18.464Z,1.98
2022-09-28T19:33:46.668Z,1.90
2022-09-28T19:36:17.254Z,1.50
2022-09-28T19:38:46.483Z,2.63
2022-09-28T19:41:39.148Z,2.10
2022-09-28T19:44:13.135Z,3.55
2022-09-28T19:46:40.667Z,4.78
2022-09-28T19:49:09.682Z,3.50
2022-09-28T19:51:46.927Z,4.30
2022-09-28T19:54:36.283Z,4.20
2022-09-28T19:57:07.851Z,4.53
2022-09-28T19:59:35.862Z,3.75
2022-09-28T20:02:03.329Z,4.70
2022-09-28T20:04:30.579Z,3.65
2022-09-28T20:06:58.366Z,3.95
2022-09-28T20:09:26.955Z,4.35
2022-09-28T20:11:54.425Z,3.88
2022-09-28T20:14:24.454Z,4.07
2022-09-28T20:16:53.367Z,3.47
2022-09-28T20:19:21.925Z,3.88
2022-09-28T20:21:51.907Z,3.58
2022-09-28T20:24:19.257Z,3.60
2022-09-28T20:26:49.698Z,3.63
2022-09-28T20:29:17.535Z,4.00
2022-09-28T20:31:45.714Z,4.20
2022-09-28T20:34:13.140Z,4.03
2022-09-28T20:36:42.427Z,3.65
2022-09-28T20:39:11.786Z,4.13
2022-09-28T20:41:39.024Z,3.83
2022-09-28T20:44:08.123Z,3.85
2022-09-28T20:46:35.792Z,3.25
2022-09-28T20:49:03.425Z,4.18
2022-09-28T20:51:30.830Z,3.47
2022-09-28T20:53:58.952Z,4.13
2022-09-28T20:56:27.600Z,3.30
2022-09-28T20:58:55.811Z,4.10
2022-09-28T21:01:26.442Z,4.72
2022-09-28T21:03:55.607Z,5.35
2022-09-28T21:06:24.769Z,4.72
2022-09-28T21:08:52.326Z,5.43
2022-09-28T21:11:22.698Z,5.28
2022-09-28T21:13:53.127Z,5.55
2022-09-28T21:16:20.798Z,5.38
2022-09-28T21:18:49.534Z,5.60
2022-09-28T21:21:19.742Z,5.75
2022-09-28T21:23:47.585Z,5.45
2022-09-28T21:26:19.006Z,5.55
2022-09-28T21:28:46.831Z,3.78
2022-09-28T21:31:14.606Z,3.60
2022-09-28T21:33:41.881Z,4.00
2022-09-28T21:36:10.532Z,3.28
2022-09-28T21:38:38.384Z,3.70
2022-09-28T21:41:05.727Z,3.50
2022-09-28T21:43:33.206Z,2.80
2022-09-28T21:46:00.612Z,2.47
2022-09-28T21:48:29.376Z,2.30
2022-09-28T21:50:57.006Z,2.53
2022-09-28T21:53:29.092Z,2.30
2022-09-28T21:55:59.253Z,2.30
2022-09-28T21:58:31.144Z,2.13
2022-09-28T22:01:01.933Z,2.38
2022-09-28T22:03:30.273Z,2.60
2022-09-28T22:05:57.726Z,2.30
2022-09-28T22:08:26.829Z,2.30
2022-09-28T22:11:00.924Z,2.47
2022-09-28T22:13:28.426Z,2.27
2022-09-28T22:15:57.797Z,2.25
2022-09-28T22:18:25.791Z,2.58
2022-09-28T22:20:59.348Z,2.40
2022-09-28T22:23:28.347Z,2.30
2022-09-28T22:26:00.533Z,2.20
2022-09-28T22:28:27.875Z,2.45
2022-09-28T22:30:55.504Z,2.53
2022-09-28T22:33:22.823Z,2.00
2022-09-28T22:35:51.327Z,2.35
2022-09-28T22:38:18.702Z,2.03
2022-09-28T22:40:51.250Z,2.55
2022-09-28T22:43:19.010Z,2.20
2022-09-28T22:45:46.498Z,2.50
2022-09-28T22:48:13.966Z,2.63
2022-09-28T22:50:48.621Z,3.00
2022-09-28T22:53:16.086Z,3.25
2022-09-28T22:55:43.816Z,4.03
2022-09-28T22:58:13.594Z,5.15
2022-09-28T23:00:40.818Z,4.43
2022-09-28T23:03:08.067Z,4.72
2022-09-28T23:05:35.301Z,5.38
2022-09-28T23:08:03.267Z,5.35
2022-09-28T23:10:30.847Z,5.97
2022-09-28T23:12:58.463Z,6.35
2022-09-28T23:15:28.639Z,6.82
2022-09-28T23:17:56.028Z,7.95
2022-09-28T23:20:23.811Z,9.30
2022-09-28T23:22:51.218Z,9.40
2022-09-28T23:25:19.298Z,9.27
2022-09-28T23:27:47.035Z,10.05
2022-09-28T23:30:15.564Z,8.40
2022-09-28T23:32:44.543Z,8.40
2022-09-28T23:35:12.422Z,7.68
2022-09-28T23:37:39.615Z,7.35
2022-09-28T23:40:07.329Z,7.25
2022-09-28T23:42:35.495Z,6.53
2022-09-28T23:45:02.966Z,6.22
2022-09-28T23:47:30.366Z,6.13
2022-09-28T23:49:58.924Z,6.38
2022-09-28T23:52:26.149Z,6.88
2022-09-28T23:54:53.248Z,6.65
2022-09-28T23:57:20.719Z,6.32
2022-09-28T23:59:47.896Z,6.00
